DASIO EHGG-EDDH
Flight info
| Callsign | DASIO |
|---|---|
| Flight time | 0h 40m |
| Altitude | 230 |
| Route | DOBA2C DOBAK SUQIF M105 RIBSO RIBS3P |
| Aircraft | E50P/L-VGDW/C |
Departure
| Time | 2026-04-26 15:55 |
|---|---|
| Airport | Groningen Airport Eelde (EHGG) |
Arrival
| Time | 2026-04-26 16:36 |
|---|---|
| Airport | Hamburg Helmut Schmidt Airport (EDDH) |
| Time | Latitude | Longitude | Altitude | Speed | Heading |
|---|---|---|---|---|---|
| 2026-04-26 15:39 | 53.12862 | 6.58721 | 22 ft | 0 kts | 37° |
| 2026-04-26 15:47 | 53.12864 | 6.58729 | 22 ft | 2 kts | 80° |
| 2026-04-26 15:48 | 53.12836 | 6.58752 | 22 ft | 5 kts | 163° |
| 2026-04-26 15:48 | 53.12804 | 6.58789 | 22 ft | 12 kts | 154° |
| 2026-04-26 15:48 | 53.12746 | 6.58765 | 22 ft | 12 kts | 214° |
| 2026-04-26 15:48 | 53.12694 | 6.58702 | 22 ft | 13 kts | 179° |
| 2026-04-26 15:49 | 53.12650 | 6.58784 | 22 ft | 12 kts | 140° |
| 2026-04-26 15:49 | 53.12584 | 6.58904 | 22 ft | 13 kts | 129° |
| 2026-04-26 15:49 | 53.12510 | 6.58988 | 22 ft | 14 kts | 155° |
| 2026-04-26 15:49 | 53.12430 | 6.58900 | 22 ft | 21 kts | 231° |
| 2026-04-26 15:50 | 53.12313 | 6.58651 | 22 ft | 33 kts | 232° |
| 2026-04-26 15:50 | 53.12148 | 6.58292 | 22 ft | 45 kts | 231° |
| 2026-04-26 15:50 | 53.11935 | 6.57831 | 22 ft | 56 kts | 231° |
| 2026-04-26 15:50 | 53.11682 | 6.57277 | 22 ft | 62 kts | 233° |
| 2026-04-26 15:51 | 53.11447 | 6.56775 | 22 ft | 48 kts | 231° |
| 2026-04-26 15:51 | 53.11276 | 6.56405 | 22 ft | 33 kts | 232° |
| 2026-04-26 15:51 | 53.11206 | 6.56186 | 22 ft | 11 kts | 263° |
| 2026-04-26 15:51 | 53.11187 | 6.56193 | 22 ft | 8 kts | 82° |
| 2026-04-26 15:52 | 53.11199 | 6.56253 | 22 ft | 0 kts | 49° |
| 2026-04-26 15:54 | 53.11206 | 6.56268 | 22 ft | 13 kts | 51° |
| 2026-04-26 15:54 | 53.11388 | 6.56650 | 22 ft | 71 kts | 53° |
| 2026-04-26 15:54 | 53.11814 | 6.57568 | 22 ft | 130 kts | 53° |
| 2026-04-26 15:55 | 53.12428 | 6.58922 | 494 ft | 145 kts | 53° |
| 2026-04-26 15:55 | 53.13129 | 6.60311 | 1032 ft | 177 kts | 46° |
| 2026-04-26 15:55 | 53.13988 | 6.61808 | 1869 ft | 185 kts | 46° |
| 2026-04-26 15:55 | 53.14869 | 6.63447 | 2764 ft | 196 kts | 49° |
| 2026-04-26 15:56 | 53.15709 | 6.65308 | 3659 ft | 207 kts | 61° |
| 2026-04-26 15:56 | 53.16240 | 6.67493 | 4523 ft | 217 kts | 73° |
| 2026-04-26 15:56 | 53.16633 | 6.70075 | 5453 ft | 227 kts | 78° |
| 2026-04-26 15:56 | 53.16937 | 6.72711 | 6340 ft | 237 kts | 79° |
| 2026-04-26 15:57 | 53.17219 | 6.75506 | 7239 ft | 246 kts | 80° |
| 2026-04-26 15:57 | 53.17488 | 6.78358 | 8122 ft | 254 kts | 80° |
| 2026-04-26 15:57 | 53.17755 | 6.81264 | 8993 ft | 262 kts | 81° |
| 2026-04-26 15:57 | 53.17942 | 6.83325 | 9594 ft | 267 kts | 81° |
| 2026-04-26 15:58 | 53.18316 | 6.87482 | 10772 ft | 276 kts | 81° |
| 2026-04-26 15:58 | 53.18603 | 6.90680 | 11654 ft | 281 kts | 81° |
| 2026-04-26 15:58 | 53.18892 | 6.93922 | 12531 ft | 286 kts | 81° |
| 2026-04-26 15:58 | 53.19186 | 6.97218 | 13408 ft | 289 kts | 81° |
| 2026-04-26 15:59 | 53.19480 | 7.00535 | 14281 ft | 291 kts | 81° |
| 2026-04-26 15:59 | 53.19776 | 7.03882 | 15157 ft | 292 kts | 81° |
| 2026-04-26 15:59 | 53.20071 | 7.07223 | 16029 ft | 291 kts | 81° |
| 2026-04-26 15:59 | 53.20362 | 7.10536 | 16897 ft | 288 kts | 81° |
| 2026-04-26 16:00 | 53.20653 | 7.13864 | 17776 ft | 284 kts | 81° |
| 2026-04-26 16:00 | 53.20914 | 7.17051 | 18631 ft | 278 kts | 83° |
| 2026-04-26 16:00 | 53.21097 | 7.20211 | 19496 ft | 269 kts | 85° |
| 2026-04-26 16:00 | 53.21222 | 7.23289 | 20360 ft | 257 kts | 86° |
| 2026-04-26 16:01 | 53.21308 | 7.26199 | 21107 ft | 249 kts | 87° |
| 2026-04-26 16:01 | 53.21373 | 7.29073 | 21646 ft | 248 kts | 88° |
| 2026-04-26 16:01 | 53.21424 | 7.31917 | 22144 ft | 248 kts | 88° |
| 2026-04-26 16:01 | 53.21673 | 7.34767 | 22647 ft | 246 kts | 71° |
| 2026-04-26 16:02 | 53.22265 | 7.37416 | 23092 ft | 247 kts | 64° |
| 2026-04-26 16:02 | 53.22989 | 7.40108 | 23243 ft | 262 kts | 62° |
| 2026-04-26 16:02 | 53.23781 | 7.42893 | 23340 ft | 281 kts | 62° |
| 2026-04-26 16:02 | 53.24383 | 7.44982 | 23362 ft | 296 kts | 62° |
| 2026-04-26 16:03 | 53.25617 | 7.49307 | 23366 ft | 327 kts | 62° |
| 2026-04-26 16:03 | 53.26629 | 7.52854 | 23363 ft | 350 kts | 63° |
| 2026-04-26 16:03 | 53.27687 | 7.56555 | 23360 ft | 370 kts | 63° |
| 2026-04-26 16:03 | 53.28860 | 7.60645 | 23358 ft | 388 kts | 63° |
| 2026-04-26 16:04 | 53.30050 | 7.64789 | 23357 ft | 403 kts | 63° |
| 2026-04-26 16:04 | 53.31258 | 7.68991 | 23353 ft | 400 kts | 63° |
| 2026-04-26 16:04 | 53.32415 | 7.73022 | 23349 ft | 398 kts | 63° |
| 2026-04-26 16:04 | 53.33652 | 7.77313 | 23348 ft | 395 kts | 62° |
| 2026-04-26 16:05 | 53.34866 | 7.81412 | 23348 ft | 393 kts | 62° |
| 2026-04-26 16:05 | 53.36099 | 7.85472 | 23348 ft | 391 kts | 61° |
| 2026-04-26 16:05 | 53.37340 | 7.89514 | 23348 ft | 390 kts | 61° |
| 2026-04-26 16:05 | 53.38578 | 7.93526 | 23348 ft | 388 kts | 61° |
| 2026-04-26 16:06 | 53.39815 | 7.97534 | 23348 ft | 387 kts | 61° |
| 2026-04-26 16:06 | 53.41051 | 8.01534 | 23348 ft | 386 kts | 61° |
| 2026-04-26 16:06 | 53.42299 | 8.05579 | 23348 ft | 386 kts | 61° |
| 2026-04-26 16:06 | 53.43529 | 8.09565 | 23349 ft | 385 kts | 61° |
| 2026-04-26 16:07 | 53.44757 | 8.13549 | 23348 ft | 388 kts | 61° |
| 2026-04-26 16:07 | 53.46012 | 8.17615 | 23351 ft | 397 kts | 60° |
| 2026-04-26 16:07 | 53.47277 | 8.21644 | 23352 ft | 405 kts | 60° |
| 2026-04-26 16:07 | 53.48645 | 8.25945 | 23352 ft | 411 kts | 60° |
| 2026-04-26 16:08 | 53.50007 | 8.30204 | 23351 ft | 417 kts | 60° |
| 2026-04-26 16:08 | 53.50917 | 8.33041 | 23351 ft | 420 kts | 60° |
| 2026-04-26 16:08 | 53.52764 | 8.38797 | 23349 ft | 414 kts | 60° |
| 2026-04-26 16:08 | 53.54113 | 8.43009 | 23347 ft | 407 kts | 60° |
| 2026-04-26 16:09 | 53.55446 | 8.47177 | 23347 ft | 403 kts | 60° |
| 2026-04-26 16:09 | 53.56764 | 8.51305 | 23347 ft | 401 kts | 60° |
| 2026-04-26 16:09 | 53.58099 | 8.55488 | 23348 ft | 399 kts | 60° |
| 2026-04-26 16:09 | 53.59402 | 8.59578 | 23348 ft | 396 kts | 60° |
| 2026-04-26 16:10 | 53.60699 | 8.63656 | 23348 ft | 394 kts | 60° |
| 2026-04-26 16:10 | 53.61987 | 8.67709 | 23348 ft | 392 kts | 60° |
| 2026-04-26 16:10 | 53.63268 | 8.71744 | 23348 ft | 391 kts | 60° |
| 2026-04-26 16:10 | 53.64545 | 8.75771 | 23348 ft | 389 kts | 60° |
| 2026-04-26 16:11 | 53.65814 | 8.79785 | 23348 ft | 388 kts | 60° |
| 2026-04-26 16:11 | 53.67045 | 8.83824 | 23349 ft | 387 kts | 62° |
| 2026-04-26 16:11 | 53.68230 | 8.87890 | 23349 ft | 387 kts | 62° |
| 2026-04-26 16:11 | 53.69391 | 8.91973 | 23349 ft | 386 kts | 63° |
| 2026-04-26 16:12 | 53.70539 | 8.96055 | 23348 ft | 386 kts | 63° |
| 2026-04-26 16:12 | 53.71681 | 9.00141 | 23349 ft | 385 kts | 63° |
| 2026-04-26 16:12 | 53.73964 | 9.08333 | 23350 ft | 392 kts | 63° |
| 2026-04-26 16:13 | 53.75150 | 9.12592 | 23351 ft | 400 kts | 63° |
| 2026-04-26 16:13 | 53.76344 | 9.16876 | 23352 ft | 407 kts | 63° |
| 2026-04-26 16:13 | 53.77549 | 9.21201 | 23351 ft | 407 kts | 63° |
| 2026-04-26 16:13 | 53.78745 | 9.25500 | 23349 ft | 403 kts | 63° |
| 2026-04-26 16:14 | 53.79941 | 9.29757 | 23348 ft | 400 kts | 63° |
| 2026-04-26 16:14 | 53.81144 | 9.33971 | 23348 ft | 397 kts | 62° |
| 2026-04-26 16:14 | 53.82950 | 9.42732 | 23350 ft | 395 kts | 76° |
| 2026-04-26 16:15 | 53.83508 | 9.47255 | 23349 ft | 394 kts | 79° |
| 2026-04-26 16:15 | 53.83971 | 9.51816 | 23349 ft | 393 kts | 80° |
| 2026-04-26 16:15 | 53.84393 | 9.56384 | 23349 ft | 394 kts | 81° |
| 2026-04-26 16:16 | 53.85242 | 9.65546 | 23349 ft | 395 kts | 80° |
| 2026-04-26 16:16 | 53.85702 | 9.70187 | 23349 ft | 395 kts | 79° |
| 2026-04-26 16:16 | 53.86275 | 9.74664 | 23339 ft | 395 kts | 72° |
| 2026-04-26 16:16 | 53.87212 | 9.79140 | 22962 ft | 401 kts | 66° |
| 2026-04-26 16:17 | 53.88322 | 9.83459 | 22594 ft | 402 kts | 64° |
| 2026-04-26 16:17 | 53.89518 | 9.87740 | 22222 ft | 396 kts | 62° |
| 2026-04-26 16:17 | 53.90702 | 9.91837 | 21845 ft | 380 kts | 62° |
| 2026-04-26 16:17 | 53.91847 | 9.95747 | 21465 ft | 361 kts | 62° |
| 2026-04-26 16:18 | 53.92938 | 9.99464 | 21085 ft | 345 kts | 62° |
| 2026-04-26 16:18 | 53.94983 | 10.06450 | 20326 ft | 319 kts | 62° |
| 2026-04-26 16:19 | 53.96885 | 10.12993 | 19568 ft | 300 kts | 62° |
| 2026-04-26 16:19 | 53.97793 | 10.16128 | 19189 ft | 292 kts | 62° |
| 2026-04-26 16:19 | 53.99272 | 10.21256 | 18558 ft | 287 kts | 62° |
| 2026-04-26 16:20 | 54.00441 | 10.25314 | 18057 ft | 285 kts | 62° |
| 2026-04-26 16:20 | 54.02176 | 10.31339 | 17309 ft | 283 kts | 62° |
| 2026-04-26 16:20 | 54.03040 | 10.34340 | 16934 ft | 282 kts | 62° |
| 2026-04-26 16:21 | 54.03899 | 10.37327 | 16559 ft | 281 kts | 62° |
| 2026-04-26 16:21 | 54.04753 | 10.40296 | 16186 ft | 280 kts | 62° |
| 2026-04-26 16:21 | 54.05607 | 10.43268 | 15811 ft | 279 kts | 62° |
| 2026-04-26 16:21 | 54.06459 | 10.46230 | 15436 ft | 278 kts | 62° |
| 2026-04-26 16:22 | 54.07301 | 10.49162 | 15062 ft | 276 kts | 62° |
| 2026-04-26 16:22 | 54.08141 | 10.52090 | 14686 ft | 274 kts | 62° |
| 2026-04-26 16:22 | 54.08944 | 10.55017 | 14310 ft | 273 kts | 69° |
| 2026-04-26 16:22 | 54.09074 | 10.58200 | 13928 ft | 272 kts | 105° |
| 2026-04-26 16:23 | 54.08143 | 10.60936 | 13549 ft | 262 kts | 142° |
| 2026-04-26 16:23 | 54.06562 | 10.62178 | 13177 ft | 247 kts | 179° |
| 2026-04-26 16:23 | 54.04887 | 10.62025 | 12817 ft | 239 kts | 195° |
| 2026-04-26 16:23 | 54.03271 | 10.61407 | 12443 ft | 237 kts | 200° |
| 2026-04-26 16:24 | 54.01689 | 10.60659 | 12069 ft | 236 kts | 201° |
| 2026-04-26 16:24 | 54.00118 | 10.59874 | 11695 ft | 235 kts | 201° |
| 2026-04-26 16:24 | 53.98556 | 10.59081 | 11322 ft | 235 kts | 201° |
| 2026-04-26 16:24 | 53.96992 | 10.58283 | 10947 ft | 234 kts | 201° |
| 2026-04-26 16:25 | 53.95435 | 10.57486 | 10570 ft | 233 kts | 201° |
| 2026-04-26 16:25 | 53.93878 | 10.56688 | 9960 ft | 237 kts | 201° |
| 2026-04-26 16:25 | 53.92287 | 10.55865 | 9339 ft | 241 kts | 201° |
| 2026-04-26 16:25 | 53.90681 | 10.55029 | 8715 ft | 243 kts | 202° |
| 2026-04-26 16:26 | 53.89201 | 10.53753 | 8091 ft | 238 kts | 223° |
| 2026-04-26 16:26 | 53.88419 | 10.52429 | 7676 ft | 236 kts | 232° |
| 2026-04-26 16:26 | 53.87142 | 10.49425 | 6848 ft | 235 kts | 240° |
| 2026-04-26 16:26 | 53.86298 | 10.47063 | 6226 ft | 235 kts | 242° |
| 2026-04-26 16:27 | 53.85490 | 10.44671 | 5603 ft | 235 kts | 242° |
| 2026-04-26 16:27 | 53.84659 | 10.42292 | 4979 ft | 235 kts | 237° |
| 2026-04-26 16:27 | 53.83652 | 10.40110 | 4378 ft | 236 kts | 230° |
| 2026-04-26 16:27 | 53.82582 | 10.38173 | 4256 ft | 216 kts | 227° |
| 2026-04-26 16:28 | 53.81578 | 10.36414 | 4117 ft | 201 kts | 227° |
| 2026-04-26 16:28 | 53.80665 | 10.34752 | 4037 ft | 183 kts | 229° |
| 2026-04-26 16:28 | 53.79887 | 10.33259 | 4022 ft | 156 kts | 230° |
| 2026-04-26 16:28 | 53.79237 | 10.31958 | 3990 ft | 138 kts | 231° |
| 2026-04-26 16:29 | 53.78656 | 10.30761 | 3978 ft | 127 kts | 232° |
| 2026-04-26 16:29 | 53.78098 | 10.29593 | 4026 ft | 133 kts | 232° |
| 2026-04-26 16:29 | 53.77488 | 10.28303 | 4023 ft | 141 kts | 232° |
| 2026-04-26 16:29 | 53.76881 | 10.27018 | 4011 ft | 139 kts | 232° |
| 2026-04-26 16:30 | 53.76293 | 10.25784 | 4110 ft | 133 kts | 232° |
| 2026-04-26 16:30 | 53.75684 | 10.24517 | 4118 ft | 148 kts | 232° |
| 2026-04-26 16:30 | 53.75020 | 10.23143 | 3966 ft | 150 kts | 232° |
| 2026-04-26 16:30 | 53.74380 | 10.21828 | 3724 ft | 140 kts | 231° |
| 2026-04-26 16:31 | 53.73779 | 10.20596 | 3466 ft | 135 kts | 231° |
| 2026-04-26 16:31 | 53.73181 | 10.19370 | 3164 ft | 135 kts | 231° |
| 2026-04-26 16:31 | 53.72583 | 10.18147 | 2866 ft | 135 kts | 231° |
| 2026-04-26 16:31 | 53.72082 | 10.16915 | 2848 ft | 119 kts | 233° |
| 2026-04-26 16:32 | 53.71484 | 10.15797 | 2451 ft | 136 kts | 227° |
| 2026-04-26 16:32 | 53.71045 | 10.15054 | 2424 ft | 128 kts | 225° |
| 2026-04-26 16:32 | 53.70312 | 10.13416 | 2411 ft | 135 kts | 234° |
| 2026-04-26 16:32 | 53.69681 | 10.12199 | 2490 ft | 144 kts | 225° |
| 2026-04-26 16:33 | 53.68995 | 10.10984 | 2703 ft | 141 kts | 230° |
| 2026-04-26 16:33 | 53.68398 | 10.09708 | 2500 ft | 138 kts | 231° |
| 2026-04-26 16:33 | 53.67780 | 10.08466 | 2128 ft | 140 kts | 231° |
| 2026-04-26 16:33 | 53.67168 | 10.07161 | 1696 ft | 140 kts | 232° |
| 2026-04-26 16:34 | 53.66537 | 10.05917 | 1293 ft | 140 kts | 229° |
| 2026-04-26 16:34 | 53.65891 | 10.04685 | 873 ft | 140 kts | 229° |
| 2026-04-26 16:34 | 53.65312 | 10.03505 | 759 ft | 125 kts | 233° |
| 2026-04-26 16:34 | 53.64792 | 10.02364 | 491 ft | 118 kts | 232° |
| 2026-04-26 16:35 | 53.64269 | 10.01321 | 326 ft | 113 kts | 231° |
| 2026-04-26 16:35 | 53.63800 | 10.00375 | 164 ft | 101 kts | 232° |
| 2026-04-26 16:35 | 53.63383 | 9.99522 | 66 ft | 84 kts | 230° |
| 2026-04-26 16:35 | 53.63154 | 9.99058 | 58 ft | 68 kts | 231° |
| 2026-04-26 16:36 | 53.62911 | 9.98575 | 58 ft | 36 kts | 222° |
| 2026-04-26 16:36 | 53.62778 | 9.98479 | 58 ft | 13 kts | 196° |
| 2026-04-26 16:36 | 53.62760 | 9.98473 | 58 ft | 0 kts | 187° |
| 2026-04-26 16:37 | 53.62734 | 9.98468 | 58 ft | 7 kts | 181° |
| 2026-04-26 16:37 | 53.62693 | 9.98515 | 58 ft | 9 kts | 114° |
| 2026-04-26 16:37 | 53.62698 | 9.98570 | 58 ft | 0 kts | 51° |
| 2026-04-26 16:38 | 53.62699 | 9.98571 | 58 ft | 2 kts | 51° |
| 2026-04-26 16:38 | 53.62719 | 9.98640 | 58 ft | 3 kts | 129° |
| 2026-04-26 16:38 | 53.62709 | 9.98651 | 58 ft | 0 kts | 149° |
| 2026-04-26 16:38 | 53.62696 | 9.98665 | 58 ft | 4 kts | 149° |
| 2026-04-26 16:39 | 53.62658 | 9.98698 | 58 ft | 7 kts | 182° |
| 2026-04-26 16:39 | 53.62645 | 9.98678 | 58 ft | 0 kts | 249° |
| 2026-04-26 16:40 | 53.62645 | 9.98677 | 58 ft | 0 kts | 249° |
| 2026-04-26 16:42 | 53.62645 | 9.98676 | 58 ft | 0 kts | 249° |